sensor_id;sensor_type;location;lat;lon;timestamp;P1;durP1;ratioP1;P2;durP2;ratioP2
20669;SDS011;10494;50.868;4.180;2023-05-27T00:01:26;24.08;;;5.57;;
20669;SDS011;10494;50.868;4.180;2023-05-27T00:03:52;21.80;;;5.18;;
20669;SDS011;10494;50.868;4.180;2023-05-27T00:06:17;23.95;;;5.43;;
20669;SDS011;10494;50.868;4.180;2023-05-27T00:08:43;26.60;;;5.60;;
20669;SDS011;10494;50.868;4.180;2023-05-27T00:11:08;22.75;;;5.63;;
20669;SDS011;10494;50.868;4.180;2023-05-27T00:13:34;22.23;;;5.53;;
20669;SDS011;10494;50.868;4.180;2023-05-27T00:16:00;26.92;;;5.70;;
20669;SDS011;10494;50.868;4.180;2023-05-27T00:18:25;22.58;;;5.22;;
20669;SDS011;10494;50.868;4.180;2023-05-27T00:20:51;27.00;;;5.72;;
20669;SDS011;10494;50.868;4.180;2023-05-27T00:23:16;22.73;;;6.13;;
20669;SDS011;10494;50.868;4.180;2023-05-27T00:25:42;16.95;;;5.03;;
20669;SDS011;10494;50.868;4.180;2023-05-27T00:28:08;17.70;;;4.93;;
20669;SDS011;10494;50.868;4.180;2023-05-27T00:30:34;19.67;;;4.82;;
20669;SDS011;10494;50.868;4.180;2023-05-27T00:32:59;17.45;;;4.72;;
20669;SDS011;10494;50.868;4.180;2023-05-27T00:35:25;23.23;;;5.43;;
20669;SDS011;10494;50.868;4.180;2023-05-27T00:37:50;22.17;;;5.35;;
20669;SDS011;10494;50.868;4.180;2023-05-27T00:40:17;21.77;;;5.68;;
20669;SDS011;10494;50.868;4.180;2023-05-27T00:42:46;21.92;;;5.28;;
20669;SDS011;10494;50.868;4.180;2023-05-27T00:45:12;18.70;;;5.13;;
20669;SDS011;10494;50.868;4.180;2023-05-27T00:47:37;19.13;;;4.40;;
20669;SDS011;10494;50.868;4.180;2023-05-27T00:50:03;19.80;;;4.80;;
20669;SDS011;10494;50.868;4.180;2023-05-27T00:52:30;20.52;;;5.28;;
20669;SDS011;10494;50.868;4.180;2023-05-27T00:54:56;22.73;;;5.38;;
20669;SDS011;10494;50.868;4.180;2023-05-27T00:57:24;16.95;;;4.47;;
20669;SDS011;10494;50.868;4.180;2023-05-27T00:59:51;20.65;;;5.00;;
20669;SDS011;10494;50.868;4.180;2023-05-27T01:02:17;29.00;;;5.25;;
20669;SDS011;10494;50.868;4.180;2023-05-27T01:04:42;24.42;;;5.82;;
20669;SDS011;10494;50.868;4.180;2023-05-27T01:07:14;23.92;;;5.65;;
20669;SDS011;10494;50.868;4.180;2023-05-27T01:10:31;24.20;;;5.75;;
20669;SDS011;10494;50.868;4.180;2023-05-27T01:12:47;25.35;;;5.43;;
20669;SDS011;10494;50.868;4.180;2023-05-27T01:15:19;27.92;;;6.22;;
20669;SDS011;10494;50.868;4.180;2023-05-27T01:17:45;23.17;;;4.78;;
20669;SDS011;10494;50.868;4.180;2023-05-27T01:20:12;19.90;;;4.80;;
20669;SDS011;10494;50.868;4.180;2023-05-27T01:22:40;26.63;;;5.45;;
20669;SDS011;10494;50.868;4.180;2023-05-27T01:25:07;16.45;;;4.50;;
20669;SDS011;10494;50.868;4.180;2023-05-27T01:27:33;17.83;;;4.78;;
20669;SDS011;10494;50.868;4.180;2023-05-27T01:29:59;18.55;;;4.47;;
20669;SDS011;10494;50.868;4.180;2023-05-27T01:37:42;20.02;;;6.00;;
20669;SDS011;10494;50.868;4.180;2023-05-27T01:40:10;27.92;;;5.90;;
20669;SDS011;10494;50.868;4.180;2023-05-27T01:42:38;15.82;;;4.80;;
20669;SDS011;10494;50.868;4.180;2023-05-27T01:45:06;22.13;;;5.13;;
20669;SDS011;10494;50.868;4.180;2023-05-27T01:47:32;23.55;;;5.90;;
20669;SDS011;10494;50.868;4.180;2023-05-27T01:49:59;18.73;;;5.40;;
20669;SDS011;10494;50.868;4.180;2023-05-27T01:52:25;25.92;;;5.15;;
20669;SDS011;10494;50.868;4.180;2023-05-27T01:54:51;21.25;;;5.60;;
20669;SDS011;10494;50.868;4.180;2023-05-27T01:57:17;25.48;;;5.57;;
20669;SDS011;10494;50.868;4.180;2023-05-27T01:59:43;20.50;;;5.88;;
20669;SDS011;10494;50.868;4.180;2023-05-27T02:02:09;25.50;;;5.70;;
20669;SDS011;10494;50.868;4.180;2023-05-27T02:04:35;23.13;;;5.53;;
20669;SDS011;10494;50.868;4.180;2023-05-27T02:07:00;25.15;;;5.88;;
20669;SDS011;10494;50.868;4.180;2023-05-27T02:09:26;29.50;;;5.65;;
20669;SDS011;10494;50.868;4.180;2023-05-27T02:11:52;26.65;;;5.60;;
20669;SDS011;10494;50.868;4.180;2023-05-27T02:14:17;20.08;;;5.13;;
20669;SDS011;10494;50.868;4.180;2023-05-27T02:16:43;21.40;;;5.53;;
20669;SDS011;10494;50.868;4.180;2023-05-27T02:19:09;24.98;;;5.32;;
20669;SDS011;10494;50.868;4.180;2023-05-27T02:21:36;28.50;;;6.32;;
20669;SDS011;10494;50.868;4.180;2023-05-27T02:24:02;22.70;;;5.28;;
20669;SDS011;10494;50.868;4.180;2023-05-27T02:26:28;21.13;;;5.80;;
20669;SDS011;10494;50.868;4.180;2023-05-27T02:28:53;31.63;;;6.95;;
20669;SDS011;10494;50.868;4.180;2023-05-27T02:31:19;24.67;;;6.43;;
20669;SDS011;10494;50.868;4.180;2023-05-27T02:33:46;18.25;;;5.65;;
20669;SDS011;10494;50.868;4.180;2023-05-27T02:36:12;25.33;;;6.07;;
20669;SDS011;10494;50.868;4.180;2023-05-27T02:38:38;26.02;;;5.85;;
20669;SDS011;10494;50.868;4.180;2023-05-27T02:41:04;15.70;;;5.20;;
20669;SDS011;10494;50.868;4.180;2023-05-27T02:43:30;19.45;;;5.20;;
20669;SDS011;10494;50.868;4.180;2023-05-27T02:45:56;18.63;;;5.82;;
20669;SDS011;10494;50.868;4.180;2023-05-27T02:48:21;22.63;;;5.68;;
20669;SDS011;10494;50.868;4.180;2023-05-27T02:50:47;27.98;;;6.25;;
20669;SDS011;10494;50.868;4.180;2023-05-27T02:53:13;39.00;;;7.07;;
20669;SDS011;10494;50.868;4.180;2023-05-27T02:55:39;26.20;;;6.35;;
20669;SDS011;10494;50.868;4.180;2023-05-27T02:58:06;24.80;;;6.00;;
20669;SDS011;10494;50.868;4.180;2023-05-27T03:00:32;19.65;;;5.88;;
20669;SDS011;10494;50.868;4.180;2023-05-27T03:02:58;30.20;;;6.20;;
20669;SDS011;10494;50.868;4.180;2023-05-27T03:05:24;26.13;;;5.93;;
20669;SDS011;10494;50.868;4.180;2023-05-27T03:07:50;19.08;;;5.88;;
20669;SDS011;10494;50.868;4.180;2023-05-27T03:10:16;19.27;;;5.20;;
20669;SDS011;10494;50.868;4.180;2023-05-27T03:12:42;17.42;;;5.07;;
20669;SDS011;10494;50.868;4.180;2023-05-27T03:15:07;23.73;;;5.77;;
20669;SDS011;10494;50.868;4.180;2023-05-27T03:17:35;21.83;;;5.80;;
20669;SDS011;10494;50.868;4.180;2023-05-27T03:20:02;26.15;;;5.72;;
20669;SDS011;10494;50.868;4.180;2023-05-27T03:22:30;22.05;;;5.68;;
20669;SDS011;10494;50.868;4.180;2023-05-27T03:24:56;23.75;;;5.63;;
20669;SDS011;10494;50.868;4.180;2023-05-27T03:27:22;21.02;;;5.28;;
20669;SDS011;10494;50.868;4.180;2023-05-27T03:29:48;21.08;;;6.07;;
20669;SDS011;10494;50.868;4.180;2023-05-27T03:32:13;27.30;;;6.28;;
20669;SDS011;10494;50.868;4.180;2023-05-27T03:34:40;26.90;;;6.28;;
20669;SDS011;10494;50.868;4.180;2023-05-27T03:37:05;30.98;;;6.57;;
20669;SDS011;10494;50.868;4.180;2023-05-27T03:39:31;22.10;;;5.72;;
20669;SDS011;10494;50.868;4.180;2023-05-27T03:41:56;38.20;;;7.60;;
20669;SDS011;10494;50.868;4.180;2023-05-27T03:44:22;18.13;;;5.93;;
20669;SDS011;10494;50.868;4.180;2023-05-27T03:46:48;24.37;;;5.90;;
20669;SDS011;10494;50.868;4.180;2023-05-27T03:49:14;23.38;;;6.15;;
20669;SDS011;10494;50.868;4.180;2023-05-27T03:51:41;23.25;;;5.95;;
20669;SDS011;10494;50.868;4.180;2023-05-27T03:54:06;26.02;;;5.85;;
20669;SDS011;10494;50.868;4.180;2023-05-27T03:56:32;24.50;;;6.95;;
20669;SDS011;10494;50.868;4.180;2023-05-27T03:58:57;29.27;;;6.65;;
20669;SDS011;10494;50.868;4.180;2023-05-27T04:01:23;26.27;;;7.40;;
20669;SDS011;10494;50.868;4.180;2023-05-27T04:03:49;17.55;;;5.80;;
20669;SDS011;10494;50.868;4.180;2023-05-27T04:06:15;30.97;;;8.10;;
20669;SDS011;10494;50.868;4.180;2023-05-27T04:08:40;18.53;;;5.90;;
20669;SDS011;10494;50.868;4.180;2023-05-27T04:11:09;26.73;;;5.63;;
20669;SDS011;10494;50.868;4.180;2023-05-27T04:13:35;26.53;;;7.07;;
20669;SDS011;10494;50.868;4.180;2023-05-27T04:16:01;15.95;;;6.32;;
20669;SDS011;10494;50.868;4.180;2023-05-27T04:18:26;17.63;;;5.53;;
20669;SDS011;10494;50.868;4.180;2023-05-27T04:20:52;25.17;;;6.87;;
20669;SDS011;10494;50.868;4.180;2023-05-27T04:23:18;20.25;;;5.80;;
20669;SDS011;10494;50.868;4.180;2023-05-27T04:25:43;13.60;;;5.18;;
20669;SDS011;10494;50.868;4.180;2023-05-27T04:28:09;27.97;;;6.90;;
20669;SDS011;10494;50.868;4.180;2023-05-27T04:30:35;22.33;;;6.80;;
20669;SDS011;10494;50.868;4.180;2023-05-27T04:33:01;31.20;;;6.93;;
20669;SDS011;10494;50.868;4.180;2023-05-27T04:35:27;23.90;;;6.20;;
20669;SDS011;10494;50.868;4.180;2023-05-27T04:37:56;27.70;;;6.63;;
20669;SDS011;10494;50.868;4.180;2023-05-27T04:40:24;18.97;;;5.23;;
20669;SDS011;10494;50.868;4.180;2023-05-27T04:42:50;22.63;;;5.95;;
20669;SDS011;10494;50.868;4.180;2023-05-27T04:45:15;26.27;;;6.88;;
20669;SDS011;10494;50.868;4.180;2023-05-27T04:47:41;21.25;;;6.03;;
20669;SDS011;10494;50.868;4.180;2023-05-27T04:50:07;22.87;;;6.60;;
20669;SDS011;10494;50.868;4.180;2023-05-27T04:52:33;21.55;;;6.80;;
20669;SDS011;10494;50.868;4.180;2023-05-27T04:55:07;21.00;;;6.63;;
20669;SDS011;10494;50.868;4.180;2023-05-27T04:57:35;27.45;;;7.15;;
20669;SDS011;10494;50.868;4.180;2023-05-27T05:00:01;21.40;;;6.65;;
20669;SDS011;10494;50.868;4.180;2023-05-27T05:02:33;24.33;;;7.10;;
20669;SDS011;10494;50.868;4.180;2023-05-27T05:05:03;22.17;;;6.43;;
20669;SDS011;10494;50.868;4.180;2023-05-27T05:07:30;25.85;;;6.55;;
20669;SDS011;10494;50.868;4.180;2023-05-27T05:09:56;24.65;;;6.85;;
20669;SDS011;10494;50.868;4.180;2023-05-27T05:12:22;31.33;;;7.23;;
20669;SDS011;10494;50.868;4.180;2023-05-27T05:14:48;22.70;;;7.15;;
20669;SDS011;10494;50.868;4.180;2023-05-27T05:17:14;21.17;;;6.93;;
20669;SDS011;10494;50.868;4.180;2023-05-27T05:19:40;22.13;;;6.13;;
20669;SDS011;10494;50.868;4.180;2023-05-27T05:22:05;21.05;;;7.00;;
20669;SDS011;10494;50.868;4.180;2023-05-27T05:24:31;28.50;;;7.37;;
20669;SDS011;10494;50.868;4.180;2023-05-27T05:26:56;20.50;;;6.47;;
20669;SDS011;10494;50.868;4.180;2023-05-27T05:29:22;16.90;;;6.32;;
20669;SDS011;10494;50.868;4.180;2023-05-27T05:31:48;27.05;;;7.30;;
20669;SDS011;10494;50.868;4.180;2023-05-27T05:34:13;23.92;;;6.68;;
20669;SDS011;10494;50.868;4.180;2023-05-27T05:36:39;27.20;;;7.30;;
20669;SDS011;10494;50.868;4.180;2023-05-27T05:39:05;17.50;;;6.93;;
20669;SDS011;10494;50.868;4.180;2023-05-27T05:41:31;19.98;;;6.28;;
20669;SDS011;10494;50.868;4.180;2023-05-27T05:43:57;23.77;;;6.85;;
20669;SDS011;10494;50.868;4.180;2023-05-27T05:46:22;23.73;;;6.75;;
20669;SDS011;10494;50.868;4.180;2023-05-27T05:48:50;20.92;;;6.70;;
20669;SDS011;10494;50.868;4.180;2023-05-27T05:51:17;23.55;;;7.47;;
20669;SDS011;10494;50.868;4.180;2023-05-27T05:53:43;32.05;;;7.22;;
20669;SDS011;10494;50.868;4.180;2023-05-27T05:56:08;27.40;;;7.05;;
20669;SDS011;10494;50.868;4.180;2023-05-27T05:58:34;21.92;;;7.20;;
20669;SDS011;10494;50.868;4.180;2023-05-27T06:00:59;24.45;;;7.68;;
20669;SDS011;10494;50.868;4.180;2023-05-27T06:03:25;29.65;;;7.78;;
20669;SDS011;10494;50.868;4.180;2023-05-27T06:05:51;26.00;;;7.68;;
20669;SDS011;10494;50.868;4.180;2023-05-27T06:08:16;20.80;;;7.35;;
20669;SDS011;10494;50.868;4.180;2023-05-27T06:10:42;22.42;;;6.78;;
20669;SDS011;10494;50.868;4.180;2023-05-27T06:13:07;33.97;;;6.68;;
20669;SDS011;10494;50.868;4.180;2023-05-27T06:15:36;27.13;;;7.15;;
20669;SDS011;10494;50.868;4.180;2023-05-27T06:18:02;17.98;;;6.85;;
20669;SDS011;10494;50.868;4.180;2023-05-27T06:20:27;22.67;;;7.35;;
20669;SDS011;10494;50.868;4.180;2023-05-27T06:22:53;25.27;;;7.65;;
20669;SDS011;10494;50.868;4.180;2023-05-27T06:25:19;25.08;;;6.78;;
20669;SDS011;10494;50.868;4.180;2023-05-27T06:27:45;29.15;;;7.20;;
20669;SDS011;10494;50.868;4.180;2023-05-27T06:30:11;28.02;;;7.65;;
20669;SDS011;10494;50.868;4.180;2023-05-27T06:32:37;17.65;;;6.85;;
20669;SDS011;10494;50.868;4.180;2023-05-27T06:35:02;31.98;;;7.53;;
20669;SDS011;10494;50.868;4.180;2023-05-27T06:37:28;23.40;;;7.07;;
20669;SDS011;10494;50.868;4.180;2023-05-27T06:39:54;25.73;;;8.00;;
20669;SDS011;10494;50.868;4.180;2023-05-27T06:42:20;24.52;;;7.85;;
20669;SDS011;10494;50.868;4.180;2023-05-27T06:44:47;26.25;;;8.05;;
20669;SDS011;10494;50.868;4.180;2023-05-27T06:47:13;28.20;;;6.95;;
20669;SDS011;10494;50.868;4.180;2023-05-27T06:49:39;23.25;;;7.78;;
20669;SDS011;10494;50.868;4.180;2023-05-27T06:52:04;26.92;;;6.93;;
20669;SDS011;10494;50.868;4.180;2023-05-27T06:54:30;22.08;;;7.50;;
20669;SDS011;10494;50.868;4.180;2023-05-27T06:56:56;27.92;;;6.97;;
20669;SDS011;10494;50.868;4.180;2023-05-27T06:59:21;25.42;;;6.70;;
20669;SDS011;10494;50.868;4.180;2023-05-27T07:01:47;28.70;;;7.20;;
20669;SDS011;10494;50.868;4.180;2023-05-27T07:04:13;22.27;;;6.82;;
20669;SDS011;10494;50.868;4.180;2023-05-27T07:06:38;23.08;;;6.65;;
20669;SDS011;10494;50.868;4.180;2023-05-27T07:09:04;21.85;;;6.95;;
20669;SDS011;10494;50.868;4.180;2023-05-27T07:11:30;23.10;;;7.05;;
20669;SDS011;10494;50.868;4.180;2023-05-27T07:13:57;23.25;;;7.03;;
20669;SDS011;10494;50.868;4.180;2023-05-27T07:16:22;21.25;;;6.57;;
20669;SDS011;10494;50.868;4.180;2023-05-27T07:18:48;20.48;;;6.35;;
20669;SDS011;10494;50.868;4.180;2023-05-27T07:21:13;22.48;;;6.80;;
20669;SDS011;10494;50.868;4.180;2023-05-27T07:23:39;21.60;;;6.57;;
20669;SDS011;10494;50.868;4.180;2023-05-27T07:26:05;18.95;;;6.18;;
20669;SDS011;10494;50.868;4.180;2023-05-27T07:28:30;18.27;;;5.78;;
20669;SDS011;10494;50.868;4.180;2023-05-27T07:30:57;21.52;;;7.10;;
20669;SDS011;10494;50.868;4.180;2023-05-27T07:33:23;19.88;;;6.03;;
20669;SDS011;10494;50.868;4.180;2023-05-27T07:35:49;23.35;;;6.72;;
20669;SDS011;10494;50.868;4.180;2023-05-27T07:38:14;25.80;;;7.80;;
20669;SDS011;10494;50.868;4.180;2023-05-27T07:40:40;17.15;;;6.43;;
20669;SDS011;10494;50.868;4.180;2023-05-27T07:43:05;15.88;;;5.90;;
20669;SDS011;10494;50.868;4.180;2023-05-27T07:45:31;21.98;;;6.05;;
20669;SDS011;10494;50.868;4.180;2023-05-27T07:47:57;16.33;;;6.20;;
20669;SDS011;10494;50.868;4.180;2023-05-27T07:50:22;20.17;;;6.38;;
20669;SDS011;10494;50.868;4.180;2023-05-27T07:52:48;17.33;;;6.22;;
20669;SDS011;10494;50.868;4.180;2023-05-27T07:55:14;18.65;;;6.03;;
20669;SDS011;10494;50.868;4.180;2023-05-27T07:57:40;15.95;;;5.82;;
20669;SDS011;10494;50.868;4.180;2023-05-27T08:00:06;21.95;;;6.70;;
20669;SDS011;10494;50.868;4.180;2023-05-27T08:02:32;17.23;;;5.95;;
20669;SDS011;10494;50.868;4.180;2023-05-27T08:04:58;23.10;;;6.68;;
20669;SDS011;10494;50.868;4.180;2023-05-27T08:07:24;21.63;;;6.28;;
20669;SDS011;10494;50.868;4.180;2023-05-27T08:09:49;20.33;;;6.30;;
20669;SDS011;10494;50.868;4.180;2023-05-27T08:12:16;25.10;;;7.63;;
20669;SDS011;10494;50.868;4.180;2023-05-27T08:14:42;20.83;;;6.47;;
20669;SDS011;10494;50.868;4.180;2023-05-27T08:17:08;18.35;;;6.63;;
20669;SDS011;10494;50.868;4.180;2023-05-27T08:19:34;19.80;;;6.45;;
20669;SDS011;10494;50.868;4.180;2023-05-27T08:22:00;20.75;;;7.18;;
20669;SDS011;10494;50.868;4.180;2023-05-27T08:24:27;19.00;;;6.20;;
20669;SDS011;10494;50.868;4.180;2023-05-27T08:26:53;18.48;;;6.90;;
20669;SDS011;10494;50.868;4.180;2023-05-27T08:29:19;16.27;;;6.30;;
20669;SDS011;10494;50.868;4.180;2023-05-27T08:31:45;18.33;;;5.97;;
20669;SDS011;10494;50.868;4.180;2023-05-27T08:34:11;18.00;;;6.07;;
20669;SDS011;10494;50.868;4.180;2023-05-27T08:36:36;22.50;;;6.53;;
20669;SDS011;10494;50.868;4.180;2023-05-27T08:39:02;24.77;;;6.60;;
20669;SDS011;10494;50.868;4.180;2023-05-27T08:41:29;22.63;;;6.75;;
20669;SDS011;10494;50.868;4.180;2023-05-27T08:43:55;25.67;;;6.65;;
20669;SDS011;10494;50.868;4.180;2023-05-27T08:46:21;17.13;;;6.07;;
20669;SDS011;10494;50.868;4.180;2023-05-27T08:48:47;18.55;;;6.05;;
20669;SDS011;10494;50.868;4.180;2023-05-27T08:51:14;17.55;;;6.40;;
20669;SDS011;10494;50.868;4.180;2023-05-27T08:53:43;24.15;;;6.97;;
20669;SDS011;10494;50.868;4.180;2023-05-27T08:56:09;19.52;;;6.10;;
20669;SDS011;10494;50.868;4.180;2023-05-27T08:58:39;22.55;;;7.28;;
20669;SDS011;10494;50.868;4.180;2023-05-27T09:01:05;21.38;;;6.72;;
20669;SDS011;10494;50.868;4.180;2023-05-27T09:03:31;17.35;;;5.75;;
20669;SDS011;10494;50.868;4.180;2023-05-27T09:05:57;19.85;;;6.00;;
20669;SDS011;10494;50.868;4.180;2023-05-27T09:08:22;26.25;;;6.43;;
20669;SDS011;10494;50.868;4.180;2023-05-27T09:10:48;18.42;;;5.95;;
20669;SDS011;10494;50.868;4.180;2023-05-27T09:13:13;21.38;;;5.90;;
20669;SDS011;10494;50.868;4.180;2023-05-27T09:15:49;18.85;;;6.03;;
20669;SDS011;10494;50.868;4.180;2023-05-27T09:18:26;25.40;;;6.15;;
20669;SDS011;10494;50.868;4.180;2023-05-27T09:20:53;17.90;;;6.47;;
20669;SDS011;10494;50.868;4.180;2023-05-27T09:23:22;18.15;;;5.10;;
20669;SDS011;10494;50.868;4.180;2023-05-27T09:25:48;18.33;;;5.90;;
20669;SDS011;10494;50.868;4.180;2023-05-27T09:28:22;17.83;;;5.82;;
20669;SDS011;10494;50.868;4.180;2023-05-27T09:31:00;17.80;;;6.30;;
20669;SDS011;10494;50.868;4.180;2023-05-27T09:33:34;15.48;;;6.10;;
20669;SDS011;10494;50.868;4.180;2023-05-27T09:36:01;18.40;;;5.53;;
20669;SDS011;10494;50.868;4.180;2023-05-27T09:38:31;19.75;;;6.70;;
20669;SDS011;10494;50.868;4.180;2023-05-27T09:40:58;20.58;;;6.05;;
20669;SDS011;10494;50.868;4.180;2023-05-27T09:43:25;17.88;;;5.88;;
20669;SDS011;10494;50.868;4.180;2023-05-27T09:45:52;17.75;;;6.63;;
20669;SDS011;10494;50.868;4.180;2023-05-27T09:48:22;15.55;;;6.13;;
20669;SDS011;10494;50.868;4.180;2023-05-27T09:50:49;25.52;;;6.72;;
20669;SDS011;10494;50.868;4.180;2023-05-27T09:53:16;16.52;;;6.15;;
20669;SDS011;10494;50.868;4.180;2023-05-27T09:55:43;17.05;;;6.30;;
20669;SDS011;10494;50.868;4.180;2023-05-27T09:58:09;17.65;;;6.03;;
20669;SDS011;10494;50.868;4.180;2023-05-27T10:00:36;20.45;;;6.18;;
20669;SDS011;10494;50.868;4.180;2023-05-27T10:03:04;18.70;;;5.72;;
20669;SDS011;10494;50.868;4.180;2023-05-27T10:05:32;21.92;;;6.13;;
20669;SDS011;10494;50.868;4.180;2023-05-27T10:07:59;19.45;;;5.93;;
20669;SDS011;10494;50.868;4.180;2023-05-27T10:10:24;19.73;;;5.93;;
20669;SDS011;10494;50.868;4.180;2023-05-27T10:12:50;23.25;;;6.03;;
20669;SDS011;10494;50.868;4.180;2023-05-27T10:17:55;16.38;;;6.15;;
20669;SDS011;10494;50.868;4.180;2023-05-27T10:20:32;17.38;;;5.93;;
20669;SDS011;10494;50.868;4.180;2023-05-27T10:23:15;23.95;;;6.03;;
20669;SDS011;10494;50.868;4.180;2023-05-27T10:25:47;17.88;;;5.85;;
20669;SDS011;10494;50.868;4.180;2023-05-27T10:28:24;23.23;;;6.03;;
20669;SDS011;10494;50.868;4.180;2023-05-27T10:30:53;17.95;;;6.05;;
20669;SDS011;10494;50.868;4.180;2023-05-27T10:33:28;21.65;;;6.15;;
20669;SDS011;10494;50.868;4.180;2023-05-27T10:36:06;17.10;;;6.15;;
20669;SDS011;10494;50.868;4.180;2023-05-27T10:38:34;22.23;;;6.65;;
20669;SDS011;10494;50.868;4.180;2023-05-27T10:41:00;17.60;;;5.70;;
20669;SDS011;10494;50.868;4.180;2023-05-27T10:43:28;19.20;;;5.95;;
20669;SDS011;10494;50.868;4.180;2023-05-27T10:46:37;19.40;;;5.72;;
20669;SDS011;10494;50.868;4.180;2023-05-27T10:48:47;19.67;;;5.60;;
20669;SDS011;10494;50.868;4.180;2023-05-27T10:51:12;23.30;;;5.43;;
20669;SDS011;10494;50.868;4.180;2023-05-27T10:53:38;18.10;;;5.32;;
20669;SDS011;10494;50.868;4.180;2023-05-27T10:56:04;18.33;;;6.10;;
20669;SDS011;10494;50.868;4.180;2023-05-27T10:58:34;18.77;;;5.93;;
20669;SDS011;10494;50.868;4.180;2023-05-27T11:01:01;20.27;;;5.18;;
20669;SDS011;10494;50.868;4.180;2023-05-27T11:03:33;14.65;;;5.60;;
20669;SDS011;10494;50.868;4.180;2023-05-27T11:06:05;16.08;;;5.38;;
20669;SDS011;10494;50.868;4.180;2023-05-27T11:08:32;18.05;;;5.38;;
20669;SDS011;10494;50.868;4.180;2023-05-27T11:10:59;22.42;;;5.78;;
20669;SDS011;10494;50.868;4.180;2023-05-27T11:15:59;18.05;;;5.25;;
20669;SDS011;10494;50.868;4.180;2023-05-27T11:18:33;20.77;;;5.30;;
20669;SDS011;10494;50.868;4.180;2023-05-27T11:21:02;22.80;;;5.60;;
20669;SDS011;10494;50.868;4.180;2023-05-27T11:23:42;19.88;;;5.32;;
20669;SDS011;10494;50.868;4.180;2023-05-27T11:26:19;19.60;;;5.85;;
20669;SDS011;10494;50.868;4.180;2023-05-27T11:28:51;17.45;;;5.53;;
20669;SDS011;10494;50.868;4.180;2023-05-27T11:31:17;21.38;;;6.13;;
20669;SDS011;10494;50.868;4.180;2023-05-27T11:33:46;16.73;;;5.03;;
20669;SDS011;10494;50.868;4.180;2023-05-27T11:36:14;19.20;;;5.40;;
20669;SDS011;10494;50.868;4.180;2023-05-27T11:38:57;20.70;;;6.43;;
20669;SDS011;10494;50.868;4.180;2023-05-27T11:41:25;21.42;;;5.65;;
20669;SDS011;10494;50.868;4.180;2023-05-27T11:46:22;22.02;;;5.65;;
20669;SDS011;10494;50.868;4.180;2023-05-27T11:48:48;18.50;;;5.30;;
20669;SDS011;10494;50.868;4.180;2023-05-27T11:51:14;17.27;;;5.75;;
20669;SDS011;10494;50.868;4.180;2023-05-27T11:53:41;21.77;;;6.28;;
20669;SDS011;10494;50.868;4.180;2023-05-27T11:56:10;16.63;;;5.05;;
20669;SDS011;10494;50.868;4.180;2023-05-27T11:58:36;16.60;;;5.95;;
20669;SDS011;10494;50.868;4.180;2023-05-27T12:01:05;19.40;;;5.10;;
20669;SDS011;10494;50.868;4.180;2023-05-27T12:03:32;17.45;;;5.05;;
20669;SDS011;10494;50.868;4.180;2023-05-27T12:05:58;22.23;;;5.47;;
20669;SDS011;10494;50.868;4.180;2023-05-27T12:08:24;17.35;;;5.22;;
20669;SDS011;10494;50.868;4.180;2023-05-27T12:10:50;13.80;;;4.95;;
20669;SDS011;10494;50.868;4.180;2023-05-27T12:13:18;19.38;;;5.07;;
20669;SDS011;10494;50.868;4.180;2023-05-27T12:15:45;16.92;;;5.25;;
20669;SDS011;10494;50.868;4.180;2023-05-27T12:18:11;16.48;;;5.05;;
20669;SDS011;10494;50.868;4.180;2023-05-27T12:20:37;19.05;;;5.55;;
20669;SDS011;10494;50.868;4.180;2023-05-27T12:23:02;16.98;;;4.95;;
20669;SDS011;10494;50.868;4.180;2023-05-27T12:25:28;15.18;;;5.18;;
20669;SDS011;10494;50.868;4.180;2023-05-27T12:27:53;16.08;;;4.72;;
20669;SDS011;10494;50.868;4.180;2023-05-27T12:30:19;20.95;;;5.15;;
20669;SDS011;10494;50.868;4.180;2023-05-27T12:32:45;19.98;;;5.00;;
20669;SDS011;10494;50.868;4.180;2023-05-27T12:35:10;19.45;;;5.13;;
20669;SDS011;10494;50.868;4.180;2023-05-27T12:37:36;12.73;;;4.15;;
20669;SDS011;10494;50.868;4.180;2023-05-27T12:40:02;12.38;;;4.70;;
20669;SDS011;10494;50.868;4.180;2023-05-27T12:42:30;21.70;;;4.78;;
20669;SDS011;10494;50.868;4.180;2023-05-27T12:44:55;15.18;;;5.50;;
20669;SDS011;10494;50.868;4.180;2023-05-27T12:47:21;15.57;;;4.50;;
20669;SDS011;10494;50.868;4.180;2023-05-27T12:49:47;16.55;;;5.55;;
20669;SDS011;10494;50.868;4.180;2023-05-27T12:52:12;17.65;;;4.70;;
20669;SDS011;10494;50.868;4.180;2023-05-27T12:54:39;16.30;;;4.43;;
20669;SDS011;10494;50.868;4.180;2023-05-27T12:57:04;17.10;;;4.65;;
20669;SDS011;10494;50.868;4.180;2023-05-27T12:59:31;16.25;;;4.40;;
20669;SDS011;10494;50.868;4.180;2023-05-27T13:01:57;16.77;;;5.35;;
20669;SDS011;10494;50.868;4.180;2023-05-27T13:04:23;16.00;;;4.57;;
20669;SDS011;10494;50.868;4.180;2023-05-27T13:06:49;14.02;;;5.38;;
20669;SDS011;10494;50.868;4.180;2023-05-27T13:09:15;14.80;;;5.88;;
20669;SDS011;10494;50.868;4.180;2023-05-27T13:11:41;20.45;;;5.07;;
20669;SDS011;10494;50.868;4.180;2023-05-27T13:14:08;12.60;;;3.95;;
20669;SDS011;10494;50.868;4.180;2023-05-27T13:16:33;19.50;;;4.82;;
20669;SDS011;10494;50.868;4.180;2023-05-27T13:19:00;15.75;;;5.10;;
20669;SDS011;10494;50.868;4.180;2023-05-27T13:21:26;16.58;;;4.78;;
20669;SDS011;10494;50.868;4.180;2023-05-27T13:23:53;16.13;;;5.18;;
20669;SDS011;10494;50.868;4.180;2023-05-27T13:26:19;15.75;;;4.63;;
20669;SDS011;10494;50.868;4.180;2023-05-27T13:28:46;14.63;;;4.72;;
20669;SDS011;10494;50.868;4.180;2023-05-27T13:31:13;25.98;;;5.07;;
20669;SDS011;10494;50.868;4.180;2023-05-27T13:33:39;19.80;;;4.72;;
20669;SDS011;10494;50.868;4.180;2023-05-27T13:36:08;12.65;;;4.60;;
20669;SDS011;10494;50.868;4.180;2023-05-27T13:38:34;11.95;;;4.07;;
20669;SDS011;10494;50.868;4.180;2023-05-27T13:40:59;20.75;;;5.13;;
20669;SDS011;10494;50.868;4.180;2023-05-27T13:43:25;12.63;;;3.95;;
20669;SDS011;10494;50.868;4.180;2023-05-27T13:45:51;14.40;;;4.70;;
20669;SDS011;10494;50.868;4.180;2023-05-27T13:48:17;13.93;;;4.30;;
20669;SDS011;10494;50.868;4.180;2023-05-27T13:50:43;11.57;;;4.93;;
20669;SDS011;10494;50.868;4.180;2023-05-27T13:53:09;13.18;;;4.72;;
20669;SDS011;10494;50.868;4.180;2023-05-27T13:55:34;16.45;;;6.32;;
20669;SDS011;10494;50.868;4.180;2023-05-27T13:58:00;14.68;;;4.75;;
20669;SDS011;10494;50.868;4.180;2023-05-27T14:00:26;17.15;;;4.78;;
20669;SDS011;10494;50.868;4.180;2023-05-27T14:02:51;14.88;;;4.60;;
20669;SDS011;10494;50.868;4.180;2023-05-27T14:05:19;11.20;;;4.63;;
20669;SDS011;10494;50.868;4.180;2023-05-27T14:07:45;16.02;;;5.22;;
20669;SDS011;10494;50.868;4.180;2023-05-27T14:10:11;14.68;;;5.07;;
20669;SDS011;10494;50.868;4.180;2023-05-27T14:12:37;15.77;;;4.72;;
20669;SDS011;10494;50.868;4.180;2023-05-27T14:15:04;16.05;;;5.57;;
20669;SDS011;10494;50.868;4.180;2023-05-27T14:17:30;15.27;;;4.15;;
20669;SDS011;10494;50.868;4.180;2023-05-27T14:19:56;19.55;;;4.88;;
20669;SDS011;10494;50.868;4.180;2023-05-27T14:22:22;11.73;;;4.65;;
20669;SDS011;10494;50.868;4.180;2023-05-27T14:24:49;15.85;;;5.22;;
20669;SDS011;10494;50.868;4.180;2023-05-27T14:27:14;15.13;;;4.60;;
20669;SDS011;10494;50.868;4.180;2023-05-27T14:29:40;18.73;;;4.60;;
20669;SDS011;10494;50.868;4.180;2023-05-27T14:32:06;14.35;;;4.55;;
20669;SDS011;10494;50.868;4.180;2023-05-27T14:34:32;13.60;;;4.47;;
20669;SDS011;10494;50.868;4.180;2023-05-27T14:36:58;18.00;;;4.65;;
20669;SDS011;10494;50.868;4.180;2023-05-27T14:39:24;16.75;;;4.47;;
20669;SDS011;10494;50.868;4.180;2023-05-27T14:41:50;18.23;;;4.68;;
20669;SDS011;10494;50.868;4.180;2023-05-27T14:44:16;14.77;;;4.97;;